createdAt,value
2022-09-25T00:01:19.344Z,2.10
2022-09-25T00:03:47.427Z,1.92
2022-09-25T00:06:17.681Z,1.90
2022-09-25T00:08:46.585Z,2.17
2022-09-25T00:11:16.363Z,2.25
2022-09-25T00:13:45.833Z,2.28
2022-09-25T00:16:16.203Z,2.05
2022-09-25T00:19:03.146Z,1.85
2022-09-25T00:21:32.036Z,2.00
2022-09-25T00:24:01.056Z,2.22
2022-09-25T00:26:30.609Z,2.75
2022-09-25T00:29:01.082Z,2.30
2022-09-25T00:31:30.507Z,1.88
2022-09-25T00:34:02.460Z,1.92
2022-09-25T00:36:30.855Z,1.98
2022-09-25T00:38:58.751Z,2.25
2022-09-25T00:41:30.104Z,1.80
2022-09-25T00:43:59.984Z,2.33
2022-09-25T00:46:31.566Z,1.65
2022-09-25T00:49:05.291Z,1.52
2022-09-25T00:51:38.884Z,1.90
2022-09-25T00:56:41.098Z,2.00
2022-09-25T00:59:13.070Z,1.60
2022-09-25T01:01:40.991Z,2.08
2022-09-25T01:04:13.394Z,2.42
2022-09-25T01:06:41.934Z,1.83
2022-09-25T01:09:09.912Z,2.00
2022-09-25T01:11:37.749Z,1.80
2022-09-25T01:14:08.585Z,2.45
2022-09-25T01:16:42.433Z,1.85
2022-09-25T01:19:27.277Z,1.50
2022-09-25T01:22:06.174Z,1.95
2022-09-25T01:25:03.058Z,1.88
2022-09-25T01:28:07.881Z,2.08
2022-09-25T01:30:41.638Z,1.80
2022-09-25T01:33:16.114Z,1.55
2022-09-25T01:35:49.806Z,1.70
2022-09-25T01:38:31.221Z,1.95
2022-09-25T01:41:03.616Z,1.77
2022-09-25T01:43:37.767Z,1.90
2022-09-25T01:46:12.997Z,2.00
2022-09-25T01:48:44.325Z,2.45
2022-09-25T01:51:20.197Z,1.88
2022-09-25T01:53:52.596Z,1.90
2022-09-25T01:56:26.251Z,1.85
2022-09-25T01:59:00.780Z,1.75
2022-09-25T02:01:35.159Z,2.05
2022-09-25T02:04:09.234Z,1.70
2022-09-25T02:06:39.834Z,1.95
2022-09-25T02:09:12.144Z,1.63
2022-09-25T02:11:44.654Z,1.90
2022-09-25T02:14:17.373Z,1.85
2022-09-25T02:16:52.250Z,1.97
2022-09-25T02:19:38.329Z,1.90
2022-09-25T02:22:11.829Z,1.88
2022-09-25T02:24:47.141Z,1.42
2022-09-25T02:27:15.732Z,1.40
2022-09-25T02:29:43.679Z,1.85
2022-09-25T02:32:14.392Z,1.85
2022-09-25T02:34:43.439Z,1.95
2022-09-25T02:37:12.694Z,1.70
2022-09-25T02:39:42.795Z,1.60
2022-09-25T02:42:23.314Z,1.77
2022-09-25T02:45:07.722Z,1.70
2022-09-25T02:47:45.750Z,1.63
2022-09-25T02:50:21.058Z,1.48
2022-09-25T02:52:54.326Z,2.03
2022-09-25T02:55:32.314Z,2.35
2022-09-25T02:58:05.628Z,2.30
2022-09-25T03:00:36.947Z,1.73
2022-09-25T03:03:09.932Z,1.83
2022-09-25T03:05:39.474Z,1.75
2022-09-25T03:08:26.066Z,1.67
2022-09-25T03:10:58.602Z,1.90
2022-09-25T03:13:31.890Z,1.70
2022-09-25T03:16:02.711Z,1.73
2022-09-25T03:18:32.312Z,1.42
2022-09-25T03:21:00.772Z,1.40
2022-09-25T03:23:28.689Z,1.70
2022-09-25T03:25:57.117Z,1.27
2022-09-25T03:28:27.234Z,1.50
2022-09-25T03:31:00.696Z,2.25
2022-09-25T03:36:08.152Z,1.50
2022-09-25T03:38:36.316Z,1.58
2022-09-25T03:41:06.805Z,1.48
2022-09-25T03:43:36.670Z,1.48
2022-09-25T03:46:05.022Z,1.65
2022-09-25T03:48:33.594Z,1.65
2022-09-25T03:51:01.794Z,1.17
2022-09-25T03:53:33.450Z,1.65
2022-09-25T03:56:02.268Z,2.03
2022-09-25T03:58:30.546Z,1.33
2022-09-25T04:00:58.844Z,1.60
2022-09-25T04:03:28.545Z,1.58
2022-09-25T04:05:57.045Z,1.83
2022-09-25T04:08:26.904Z,1.60
2022-09-25T04:10:59.336Z,1.40
2022-09-25T04:13:30.048Z,1.75
2022-09-25T04:15:58.457Z,1.75
2022-09-25T04:18:27.378Z,1.92
2022-09-25T04:20:55.207Z,2.22
2022-09-25T04:23:23.039Z,1.63
2022-09-25T04:25:51.021Z,2.28
2022-09-25T04:28:22.279Z,1.38
2022-09-25T04:30:50.646Z,1.42
2022-09-25T04:33:36.614Z,1.75
2022-09-25T04:36:05.594Z,1.52
2022-09-25T04:38:33.702Z,1.88
2022-09-25T04:41:02.840Z,2.17
2022-09-25T04:43:32.526Z,1.25
2022-09-25T04:46:03.082Z,1.75
2022-09-25T04:48:31.544Z,1.70
2022-09-25T04:50:59.489Z,1.73
2022-09-25T04:53:28.348Z,1.55
2022-09-25T04:56:01.511Z,1.75
2022-09-25T04:58:29.672Z,1.45
2022-09-25T05:01:02.722Z,1.70
2022-09-25T05:03:31.048Z,1.58
2022-09-25T05:05:59.823Z,1.48
2022-09-25T05:08:28.316Z,1.60
2022-09-25T05:10:56.495Z,1.55
2022-09-25T05:13:24.601Z,1.55
2022-09-25T05:15:52.591Z,1.85
2022-09-25T05:18:23.531Z,1.83
2022-09-25T05:20:53.407Z,1.35
2022-09-25T05:23:22.032Z,1.40
2022-09-25T05:25:53.147Z,1.77
2022-09-25T05:28:21.126Z,1.80
2022-09-25T05:30:49.137Z,1.40
2022-09-25T05:33:19.125Z,1.40
2022-09-25T05:35:49.451Z,1.35
2022-09-25T05:38:17.526Z,2.03
2022-09-25T05:40:45.468Z,1.85
2022-09-25T05:43:13.527Z,1.60
2022-09-25T05:45:42.449Z,1.52
2022-09-25T05:48:10.432Z,1.70
2022-09-25T05:50:38.581Z,1.80
2022-09-25T05:53:07.787Z,1.25
2022-09-25T05:55:36.106Z,2.05
2022-09-25T05:58:05.550Z,1.75
2022-09-25T06:00:33.993Z,1.75
2022-09-25T06:03:02.421Z,1.60
2022-09-25T06:05:30.430Z,1.60
2022-09-25T06:07:58.378Z,1.90
2022-09-25T06:10:27.611Z,1.33
2022-09-25T06:12:58.860Z,1.70
2022-09-25T06:15:27.925Z,1.50
2022-09-25T06:17:56.292Z,1.58
2022-09-25T06:20:24.908Z,1.27
2022-09-25T06:22:53.766Z,1.65
2022-09-25T06:25:22.010Z,2.33
2022-09-25T06:27:53.432Z,1.77
2022-09-25T06:30:22.025Z,1.55
2022-09-25T06:32:51.065Z,1.92
2022-09-25T06:35:19.271Z,1.58
2022-09-25T06:37:47.093Z,1.83
2022-09-25T06:40:15.211Z,1.50
2022-09-25T06:42:43.015Z,1.80
2022-09-25T06:45:12.894Z,2.05
2022-09-25T06:47:40.799Z,1.80
2022-09-25T06:50:09.416Z,1.58
2022-09-25T06:52:43.244Z,1.35
2022-09-25T06:55:11.558Z,1.48
2022-09-25T06:57:39.615Z,1.80
2022-09-25T07:00:08.945Z,1.67
2022-09-25T07:02:55.671Z,1.50
2022-09-25T07:05:23.703Z,1.35
2022-09-25T07:07:51.557Z,1.70
2022-09-25T07:10:19.551Z,1.42
2022-09-25T07:12:47.963Z,1.08
2022-09-25T07:15:16.578Z,1.20
2022-09-25T07:17:46.312Z,1.70
2022-09-25T07:20:15.206Z,1.50
2022-09-25T07:22:43.676Z,1.35
2022-09-25T07:25:12.498Z,1.60
2022-09-25T07:27:40.630Z,1.60
2022-09-25T07:30:10.414Z,1.60
2022-09-25T07:32:38.356Z,1.27
2022-09-25T07:35:08.571Z,1.15
2022-09-25T07:37:36.808Z,1.35
2022-09-25T07:40:05.049Z,1.48
2022-09-25T07:42:32.955Z,1.35
2022-09-25T07:45:00.776Z,1.38
2022-09-25T07:47:28.732Z,1.08
2022-09-25T07:49:56.612Z,0.90
2022-09-25T07:52:25.909Z,1.17
2022-09-25T07:54:53.882Z,0.80
2022-09-25T07:57:22.186Z,0.93
2022-09-25T07:59:50.153Z,1.02
2022-09-25T08:02:18.306Z,0.93
2022-09-25T08:04:46.224Z,1.02
2022-09-25T08:07:14.113Z,0.85
2022-09-25T08:09:43.338Z,1.05
2022-09-25T08:12:12.893Z,0.68
2022-09-25T08:14:41.800Z,0.93
2022-09-25T08:17:09.730Z,0.80
2022-09-25T08:19:37.668Z,1.30
2022-09-25T08:22:05.618Z,0.70
2022-09-25T08:24:33.626Z,0.63
2022-09-25T08:27:02.956Z,0.90
2022-09-25T08:29:31.043Z,1.20
2022-09-25T08:31:59.067Z,0.60
2022-09-25T08:34:42.886Z,1.30
2022-09-25T08:37:11.228Z,1.25
2022-09-25T08:39:39.133Z,1.27
2022-09-25T08:42:17.759Z,1.25
2022-09-25T08:45:16.647Z,0.85
2022-09-25T08:47:56.539Z,0.98
2022-09-25T08:50:26.253Z,1.10
2022-09-25T08:53:03.258Z,1.10
2022-09-25T08:55:48.536Z,0.73
2022-09-25T08:58:24.628Z,2.17
2022-09-25T09:00:55.306Z,0.73
2022-09-25T09:03:25.770Z,1.00
2022-09-25T09:06:00.174Z,1.20
2022-09-25T09:08:30.727Z,0.77
2022-09-25T09:11:02.773Z,0.82
2022-09-25T09:13:37.078Z,0.95
2022-09-25T09:16:10.288Z,0.75
2022-09-25T09:18:40.162Z,0.88
2022-09-25T09:21:15.290Z,0.70
2022-09-25T09:23:52.465Z,1.10
2022-09-25T09:26:25.284Z,0.68
2022-09-25T09:29:15.839Z,0.80
2022-09-25T09:31:57.418Z,0.90
2022-09-25T09:35:07.107Z,1.10
2022-09-25T09:37:49.926Z,1.05
2022-09-25T09:40:35.556Z,0.60
2022-09-25T09:43:13.584Z,1.33
2022-09-25T09:45:48.654Z,0.90
2022-09-25T09:48:25.728Z,0.95
2022-09-25T09:50:57.829Z,0.90
2022-09-25T09:53:34.071Z,0.70
2022-09-25T09:56:09.238Z,1.00
2022-09-25T09:58:48.339Z,0.85
2022-09-25T10:01:40.330Z,1.10
2022-09-25T10:04:12.651Z,0.80
2022-09-25T10:06:46.914Z,1.20
2022-09-25T10:09:16.805Z,1.50
2022-09-25T10:11:46.677Z,1.00
2022-09-25T10:14:21.050Z,1.13
2022-09-25T10:16:52.192Z,1.52
2022-09-25T10:19:23.427Z,1.20
2022-09-25T10:21:54.807Z,1.30
2022-09-25T10:24:52.019Z,1.00
2022-09-25T10:27:28.809Z,0.82
2022-09-25T10:30:15.102Z,0.85
2022-09-25T10:32:47.713Z,1.05
2022-09-25T10:35:17.814Z,1.00
2022-09-25T10:37:48.680Z,0.75
2022-09-25T10:40:27.007Z,0.95
2022-09-25T10:43:24.014Z,0.98
2022-09-25T10:46:06.674Z,0.93
2022-09-25T10:48:55.549Z,0.55
2022-09-25T10:51:23.874Z,0.60
2022-09-25T10:53:53.838Z,0.80
2022-09-25T10:56:27.531Z,0.98
2022-09-25T10:58:58.891Z,1.40
2022-09-25T11:01:35.354Z,0.88
2022-09-25T11:04:14.065Z,0.32
2022-09-25T11:06:46.657Z,0.60
2022-09-25T11:09:17.348Z,0.50
2022-09-25T11:11:47.051Z,0.70
2022-09-25T11:14:22.977Z,0.52
2022-09-25T11:16:54.127Z,0.57
2022-09-25T11:19:29.616Z,0.82
2022-09-25T11:22:07.861Z,0.80
2022-09-25T11:24:47.154Z,0.65
2022-09-25T11:27:19.698Z,0.68
2022-09-25T11:29:58.448Z,0.95
2022-09-25T11:32:35.029Z,1.02
2022-09-25T11:35:29.802Z,0.43
2022-09-25T11:38:09.625Z,0.90
2022-09-25T11:41:07.376Z,0.95
2022-09-25T11:43:46.993Z,0.70
2022-09-25T11:46:23.481Z,0.80
2022-09-25T11:49:01.889Z,1.38
2022-09-25T11:52:02.226Z,1.30
2022-09-25T11:54:39.444Z,1.10
2022-09-25T11:57:11.685Z,0.90
2022-09-25T12:00:00.359Z,0.82
2022-09-25T12:02:40.895Z,1.20
2022-09-25T12:05:25.147Z,1.10
2022-09-25T12:08:15.504Z,0.90
2022-09-25T12:10:55.927Z,0.98
2022-09-25T12:13:32.181Z,1.00
2022-09-25T12:16:12.759Z,0.98
2022-09-25T12:18:56.741Z,1.65
2022-09-25T12:21:34.064Z,0.90
2022-09-25T12:24:12.332Z,0.80
2022-09-25T12:26:48.618Z,0.90
2022-09-25T12:29:29.133Z,1.13
2022-09-25T12:32:05.160Z,0.70
2022-09-25T12:34:52.548Z,1.10
2022-09-25T12:37:38.568Z,0.93
2022-09-25T12:40:20.667Z,0.57
2022-09-25T12:42:55.680Z,0.52
2022-09-25T12:45:31.154Z,1.10
2022-09-25T12:48:12.216Z,1.10
2022-09-25T12:50:48.912Z,0.75
2022-09-25T12:53:26.812Z,1.10
2022-09-25T12:56:00.961Z,0.80
2022-09-25T12:58:48.067Z,0.60
2022-09-25T13:01:22.846Z,1.00
2022-09-25T13:03:59.145Z,0.75
2022-09-25T13:06:37.890Z,0.60
2022-09-25T13:09:18.186Z,0.95
2022-09-25T13:11:52.589Z,0.65
2022-09-25T13:14:31.484Z,1.10
2022-09-25T13:17:01.199Z,1.10
2022-09-25T13:19:32.985Z,1.02
2022-09-25T13:22:04.288Z,0.70
2022-09-25T13:24:40.324Z,0.80
2022-09-25T13:27:16.504Z,0.80
2022-09-25T13:29:45.025Z,0.77
2022-09-25T13:32:18.960Z,0.63
2022-09-25T13:34:47.791Z,0.77
2022-09-25T13:37:16.845Z,0.70
2022-09-25T13:40:06.900Z,0.98
2022-09-25T13:42:39.704Z,0.75
2022-09-25T13:45:36.236Z,1.20
2022-09-25T13:48:10.773Z,1.00
2022-09-25T13:50:40.958Z,0.88
2022-09-25T13:53:20.539Z,0.80
2022-09-25T13:56:30.977Z,1.08
2022-09-25T13:59:20.031Z,0.75
2022-09-25T14:01:51.122Z,0.73
2022-09-25T14:04:32.450Z,1.35
2022-09-25T14:07:14.453Z,0.85
2022-09-25T14:09:48.668Z,0.80
2022-09-25T14:12:30.010Z,1.27
2022-09-25T14:15:05.851Z,0.65
2022-09-25T14:17:33.993Z,0.60
2022-09-25T14:20:05.705Z,0.52
2022-09-25T14:22:44.513Z,0.70
2022-09-25T14:25:28.178Z,1.10
2022-09-25T14:27:56.263Z,0.77
2022-09-25T14:30:29.244Z,0.70
2022-09-25T14:33:19.473Z,0.47
2022-09-25T14:35:54.990Z,0.70
2022-09-25T14:38:45.247Z,0.80
2022-09-25T14:41:31.102Z,1.02
2022-09-25T14:44:17.776Z,0.93
2022-09-25T14:46:51.199Z,1.00
2022-09-25T14:49:25.445Z,1.13
2022-09-25T14:51:56.353Z,0.75
2022-09-25T14:54:29.991Z,0.65
2022-09-25T14:56:59.477Z,0.95
2022-09-25T14:59:32.997Z,0.90
2022-09-25T15:04:33.370Z,0.95
2022-09-25T15:07:06.013Z,1.10
2022-09-25T15:09:38.647Z,0.73
2022-09-25T15:12:19.162Z,1.20
2022-09-25T15:15:07.570Z,0.98
2022-09-25T15:17:45.100Z,0.90
2022-09-25T15:20:16.507Z,0.60
2022-09-25T15:22:48.355Z,0.70
2022-09-25T15:25:25.612Z,0.98
2022-09-25T15:27:53.870Z,1.65
2022-09-25T15:30:22.779Z,0.77
2022-09-25T15:32:59.778Z,0.63
2022-09-25T15:35:29.038Z,1.00
2022-09-25T15:38:07.081Z,0.70
2022-09-25T15:40:35.021Z,0.80
2022-09-25T15:43:02.981Z,0.90
2022-09-25T15:45:46.835Z,0.88
2022-09-25T15:48:22.824Z,0.80
2022-09-25T15:50:51.817Z,0.88
2022-09-25T15:53:24.870Z,0.95
2022-09-25T15:56:08.188Z,1.08
2022-09-25T15:58:45.489Z,0.93
2022-09-25T16:01:33.544Z,1.25
2022-09-25T16:04:24.053Z,1.92
2022-09-25T16:06:52.016Z,1.38
2022-09-25T16:09:31.780Z,1.52
2022-09-25T16:12:28.871Z,1.20
2022-09-25T16:14:58.038Z,0.73
2022-09-25T16:17:33.172Z,1.63
2022-09-25T16:20:05.880Z,1.20
2022-09-25T16:22:40.694Z,2.65
2022-09-25T16:25:24.725Z,1.40
2022-09-25T16:27:54.077Z,1.40
2022-09-25T16:30:24.340Z,1.40
2022-09-25T16:32:55.151Z,1.13
2022-09-25T16:36:04.470Z,1.38
2022-09-25T16:38:29.500Z,0.85
2022-09-25T16:41:05.671Z,1.10
2022-09-25T16:43:36.141Z,1.30
2022-09-25T16:46:13.484Z,1.40
2022-09-25T16:48:42.548Z,1.27
2022-09-25T16:51:15.025Z,1.50
2022-09-25T16:53:42.905Z,1.95
2022-09-25T16:56:10.959Z,1.75
2022-09-25T16:58:38.939Z,1.83
2022-09-25T17:01:06.840Z,1.15
2022-09-25T17:03:49.766Z,1.70
2022-09-25T17:06:19.864Z,0.93
2022-09-25T17:08:48.087Z,1.30
2022-09-25T17:11:17.706Z,1.23
2022-09-25T17:13:47.108Z,1.02
2022-09-25T17:16:15.254Z,1.33
2022-09-25T17:18:43.280Z,1.08
2022-09-25T17:21:14.486Z,0.90
2022-09-25T17:23:44.784Z,1.05
2022-09-25T17:26:17.916Z,1.20
2022-09-25T17:28:45.871Z,0.88
2022-09-25T17:31:15.604Z,0.95
2022-09-25T17:33:43.493Z,0.98
2022-09-25T17:36:13.472Z,1.00
2022-09-25T17:38:43.031Z,0.65
2022-09-25T17:41:18.194Z,1.00
2022-09-25T17:43:46.141Z,0.88
2022-09-25T17:46:16.170Z,0.93
2022-09-25T17:48:44.124Z,1.00
2022-09-25T17:51:15.996Z,1.05
2022-09-25T17:53:46.090Z,1.05
2022-09-25T17:56:14.343Z,1.00
2022-09-25T17:58:44.274Z,0.80
2022-09-25T18:01:15.469Z,1.00
2022-09-25T18:03:43.575Z,1.17
2022-09-25T18:06:11.397Z,0.93
2022-09-25T18:08:39.216Z,0.88
2022-09-25T18:11:12.183Z,1.05
2022-09-25T18:13:41.779Z,0.75
2022-09-25T18:16:16.502Z,0.88
2022-09-25T18:19:02.339Z,0.95
2022-09-25T18:21:48.468Z,0.95
2022-09-25T18:24:16.620Z,0.82
2022-09-25T18:26:46.741Z,1.00
2022-09-25T18:29:16.808Z,1.20
2022-09-25T18:31:45.222Z,0.80
2022-09-25T18:34:13.471Z,1.35
2022-09-25T18:36:41.655Z,1.30
2022-09-25T18:39:10.074Z,1.02
2022-09-25T18:41:38.357Z,1.10
2022-09-25T18:44:08.046Z,1.00
2022-09-25T18:46:37.418Z,1.77
2022-09-25T18:49:05.973Z,1.40
2022-09-25T18:51:34.502Z,2.03
2022-09-25T18:54:03.887Z,2.00
2022-09-25T18:56:34.576Z,1.92
2022-09-25T18:59:22.436Z,1.75
2022-09-25T19:05:54.165Z,1.70
2022-09-25T19:08:25.098Z,1.10
2022-09-25T19:10:58.757Z,1.58
2022-09-25T19:13:28.002Z,1.75
2022-09-25T19:15:59.001Z,1.88
2022-09-25T19:18:28.690Z,1.55
2022-09-25T19:20:58.491Z,2.05
2022-09-25T19:23:31.803Z,1.67
2022-09-25T19:26:03.634Z,1.95
2022-09-25T19:28:37.647Z,1.67
2022-09-25T19:31:08.691Z,1.38
2022-09-25T19:33:38.522Z,1.65
2022-09-25T19:36:08.725Z,1.58
2022-09-25T19:38:40.427Z,1.80
2022-09-25T19:41:15.196Z,1.58
2022-09-25T19:43:45.032Z,1.40
2022-09-25T19:46:14.950Z,1.33
2022-09-25T19:48:43.711Z,1.25
2022-09-25T19:51:12.845Z,1.60
2022-09-25T19:53:43.747Z,1.27
2022-09-25T19:56:12.447Z,1.45
2022-09-25T19:58:42.930Z,1.95
2022-09-25T20:01:13.265Z,1.80
2022-09-25T20:03:42.228Z,1.90
2022-09-25T20:06:13.360Z,1.40
2022-09-25T20:08:45.061Z,1.42
2022-09-25T20:11:16.870Z,1.55
2022-09-25T20:13:47.695Z,1.40
2022-09-25T20:16:18.956Z,1.42
2022-09-25T20:18:49.259Z,2.00
2022-09-25T20:25:28.021Z,2.22
2022-09-25T20:27:58.080Z,1.70
2022-09-25T20:30:30.098Z,1.77
2022-09-25T20:32:59.182Z,1.90
2022-09-25T20:35:27.135Z,2.08
2022-09-25T20:37:55.196Z,1.83
2022-09-25T20:40:25.541Z,1.60
2022-09-25T20:42:53.906Z,1.60
2022-09-25T20:45:21.975Z,1.92
2022-09-25T20:47:51.020Z,1.70
2022-09-25T20:50:19.329Z,1.90
2022-09-25T20:52:48.170Z,1.60
2022-09-25T20:55:19.701Z,1.55
2022-09-25T20:57:49.089Z,1.45
2022-09-25T21:00:19.594Z,1.65
2022-09-25T21:02:48.444Z,1.30
2022-09-25T21:05:17.562Z,1.60
2022-09-25T21:07:45.881Z,1.55
2022-09-25T21:10:16.164Z,1.30
2022-09-25T21:12:47.635Z,1.50
2022-09-25T21:15:19.218Z,1.95
2022-09-25T21:17:47.499Z,1.90
2022-09-25T21:20:16.457Z,1.40
2022-09-25T21:22:48.341Z,1.90
2022-09-25T21:25:17.060Z,1.40
2022-09-25T21:27:45.408Z,1.50
2022-09-25T21:30:14.514Z,1.58
2022-09-25T21:32:45.239Z,2.13
2022-09-25T21:35:13.891Z,1.42
2022-09-25T21:37:42.953Z,1.73
2022-09-25T21:40:11.046Z,1.83
2022-09-25T21:42:42.621Z,1.40
2022-09-25T21:45:12.069Z,1.80
2022-09-25T21:47:40.091Z,2.03
2022-09-25T21:50:10.431Z,1.58
2022-09-25T21:52:42.075Z,2.00
2022-09-25T21:55:11.148Z,2.00
2022-09-25T21:57:39.141Z,2.80
2022-09-25T22:00:08.214Z,2.72
2022-09-25T22:02:36.984Z,2.63
2022-09-25T22:05:05.750Z,2.35
2022-09-25T22:07:35.104Z,1.92
2022-09-25T22:10:03.055Z,1.98
2022-09-25T22:12:32.018Z,2.20
2022-09-25T22:15:00.563Z,1.75
2022-09-25T22:17:28.637Z,2.15
2022-09-25T22:19:56.721Z,1.88
2022-09-25T22:22:24.809Z,1.80
2022-09-25T22:24:54.839Z,2.30
2022-09-25T22:27:23.058Z,2.03
2022-09-25T22:29:50.971Z,1.80
2022-09-25T22:32:19.606Z,1.52
2022-09-25T22:34:47.854Z,1.88
2022-09-25T22:37:18.547Z,1.17
2022-09-25T22:39:47.828Z,1.90
2022-09-25T22:42:17.151Z,1.30
2022-09-25T22:44:46.368Z,1.48
2022-09-25T22:47:15.342Z,1.50
2022-09-25T22:49:43.722Z,1.73
2022-09-25T22:52:13.678Z,1.30
2022-09-25T22:54:42.593Z,1.60
2022-09-25T22:57:10.605Z,1.38
2022-09-25T22:59:39.906Z,1.17
2022-09-25T23:02:07.988Z,0.90
2022-09-25T23:04:36.291Z,1.10
2022-09-25T23:07:04.778Z,0.88
2022-09-25T23:09:33.353Z,1.27
2022-09-25T23:12:01.785Z,1.05
2022-09-25T23:14:32.478Z,0.75
2022-09-25T23:17:02.233Z,0.82
2022-09-25T23:19:30.865Z,1.67
2022-09-25T23:21:59.545Z,0.90
2022-09-25T23:24:29.709Z,1.30
2022-09-25T23:26:58.461Z,1.23
2022-09-25T23:29:26.521Z,1.27
2022-09-25T23:31:54.930Z,1.30
2022-09-25T23:34:24.762Z,1.00
2022-09-25T23:36:52.633Z,1.65
2022-09-25T23:39:21.527Z,1.75
2022-09-25T23:41:50.580Z,1.20
2022-09-25T23:44:18.800Z,1.55
2022-09-25T23:46:46.851Z,1.00
2022-09-25T23:49:18.056Z,1.65
2022-09-25T23:51:48.158Z,1.40
2022-09-25T23:54:18.331Z,1.33
2022-09-25T23:56:47.252Z,1.23
2022-09-25T23:59:16.099Z,1.42
